aviador You're here:

KAKR Decoded Metar

AKRON in OH, USA
Report Time2017-08-18 00:54:00
UTC Time2017-08-18 01:07:09
Flight Rules vfr VFR
Wind210° at 12 kt
W.Decomp.*RWY 19: 10.7 kt HW 5.4 kt RCW
RWY 25: 10.1 kt HW 6.5 kt LCW
W.Rank210° ranks 3
Current wind is above 210° avg. (8.6)
Visibility9999 m
Phenomena:N/A
Clouds:Scattered 100 Hf
Expected CloudBase > 2,000 ft AGL from Temp-Dew spread
CeilingNone
Temp27°C (ISA +14)
Dew Point22°C (74% RH)
Heat Index29.2°C
QNH1010 hPa
Density Alt3,301 ft
Elevation1,191 ft
Report Wrong Elevation
Raw Report
KAKR 180054Z AUTO 21012KT 10SM SCT100 27/22 A2983 RMK AO2 SLP089
T02670222=

Extra information for KAKR:More info

Metar Taf Metar & Taf Last 4 Metars F.Rules Stats Wind Profile Meteogram Temp Stats Airport Information Weather charts Add Link Nearby VenuesMetar ALERT Operation Metar Decoded Social comments

AIRNAV info for KAKR